METAR Data
IDs: Format: Raw Decoded Include TAF

Data at: 0451 UTC 27 Jan 2021

METAR for:KHSE (Hatteras/Mitchell Fl, NC, US)
Text:KHSE 270351Z AUTO 32003KT 3SM BR OVC008 12/12 A2990 RMK AO2 SLP126 T01220117
Temperature: 12.2°C ( 54°F)
Dewpoint: 11.7°C ( 53°F) [RH = 97%]
Pressure (altimeter):29.90 inches Hg (1012.6 mb) [Sea level pressure: 1012.6 mb]
Winds:from the NW (320 degrees) at 3 MPH (3 knots; 1.5 m/s)
Visibility: 3 sm ( 5 km)
Ceiling:800 feet AGL
Clouds: overcast cloud deck at 800 feet AGL
Weather:BR (mist)
QC Flag:automated observation with no human augmentation
Text:KHSE 270347Z AUTO 33003KT 3SM BR OVC008 12/12 A2990 RMK AO2
Temperature: 12.0°C ( 54°F)
Dewpoint: 12.0°C ( 54°F) [RH = 100%]
Pressure (altimeter):29.90 inches Hg (1012.6 mb)
Winds:from the NNW (330 degrees) at 3 MPH (3 knots; 1.5 m/s)
Visibility: 3 sm ( 5 km)
Ceiling:800 feet AGL
Clouds: overcast cloud deck at 800 feet AGL
Weather:BR (mist)
QC Flag:automated observation with no human augmentation
Text:KHSE 270339Z AUTO 34003KT 2 1/2SM BR OVC007 12/11 A2990 RMK AO2 T01170111
Temperature: 11.7°C ( 53°F)
Dewpoint: 11.1°C ( 52°F) [RH = 96%]
Pressure (altimeter):29.90 inches Hg (1012.6 mb)
Winds:from the NNW (340 degrees) at 3 MPH (3 knots; 1.5 m/s)
Visibility: 2.50 sm ( 4.02 km)
Ceiling:700 feet AGL
Clouds: overcast cloud deck at 700 feet AGL
Weather:BR (mist)
QC Flag:automated observation with no human augmentation
Text:KHSE 270332Z AUTO VRB03KT 1 3/4SM BR OVC007 12/11 A2990 RMK AO2 T01170111
Temperature: 11.7°C ( 53°F)
Dewpoint: 11.1°C ( 52°F) [RH = 96%]
Pressure (altimeter):29.90 inches Hg (1012.6 mb)
Winds:variable direction winds at 3 MPH (3 knots; 1.5 m/s)
Visibility: 1.75 sm ( 2.82 km)
Ceiling:700 feet AGL
Clouds: overcast cloud deck at 700 feet AGL
Weather:BR (mist)
QC Flag:automated observation with no human augmentation
Text:KHSE 270251Z AUTO 32003KT 2 1/2SM BR OVC007 12/11 A2991 RMK AO2 SLP129 T01170111 53005
Temperature: 11.7°C ( 53°F)
Dewpoint: 11.1°C ( 52°F) [RH = 96%]
Pressure (altimeter):29.91 inches Hg (1013.0 mb) [Sea level pressure: 1012.9 mb]
Winds:from the NW (320 degrees) at 3 MPH (3 knots; 1.5 m/s)
Visibility: 2.50 sm ( 4.02 km)
Ceiling:700 feet AGL
Clouds: overcast cloud deck at 700 feet AGL
Weather:BR (mist)
QC Flag:automated observation with no human augmentation
Text:KHSE 270242Z AUTO 34004KT 2SM BR OVC008 12/11 A2991 RMK AO2 T01170111
Temperature: 11.7°C ( 53°F)
Dewpoint: 11.1°C ( 52°F) [RH = 96%]
Pressure (altimeter):29.91 inches Hg (1013.0 mb)
Winds:from the NNW (340 degrees) at 5 MPH (4 knots; 2.1 m/s)
Visibility: 2.00 sm ( 3.22 km)
Ceiling:800 feet AGL
Clouds: overcast cloud deck at 800 feet AGL
Weather:BR (mist)
QC Flag:automated observation with no human augmentation
Text:KHSE 270227Z AUTO 28003KT 3SM BR OVC008 13/13 A2990 RMK AO2 T01330128
Temperature: 13.3°C ( 56°F)
Dewpoint: 12.8°C ( 55°F) [RH = 97%]
Pressure (altimeter):29.90 inches Hg (1012.6 mb)
Winds:from the W (280 degrees) at 3 MPH (3 knots; 1.5 m/s)
Visibility: 3 sm ( 5 km)
Ceiling:800 feet AGL
Clouds: overcast cloud deck at 800 feet AGL
Weather:BR (mist)
QC Flag:automated observation with no human augmentation
Text:KHSE 270220Z AUTO 00000KT 2 1/2SM BR OVC008 13/12 A2989 RMK AO2 T01330122
Temperature: 13.3°C ( 56°F)
Dewpoint: 12.2°C ( 54°F) [RH = 93%]
Pressure (altimeter):29.89 inches Hg (1012.3 mb)
Winds:calm
Visibility: 2.50 sm ( 4.02 km)
Ceiling:800 feet AGL
Clouds: overcast cloud deck at 800 feet AGL
Weather:BR (mist)
QC Flag:automated observation with no human augmentation
Text:KHSE 270151Z AUTO 24005KT 3SM BR FEW004 OVC009 13/13 A2990 RMK AO2 PRESRR SLP124 T01330128
Temperature: 13.3°C ( 56°F)
Dewpoint: 12.8°C ( 55°F) [RH = 97%]
Pressure (altimeter):29.90 inches Hg (1012.6 mb) [Sea level pressure: 1012.4 mb]
Winds:from the WSW (240 degrees) at 6 MPH (5 knots; 2.6 m/s)
Visibility: 3 sm ( 5 km)
Ceiling:900 feet AGL
Clouds: few clouds at 400 feet AGL, overcast cloud deck at 900 feet AGL
Weather:BR (mist)
QC Flag:automated observation with no human augmentation
Text:KHSE 270149Z AUTO 24005KT 3SM BR FEW004 OVC010 13/13 A2989 RMK AO2 LTG DSNT S
Temperature: 13.0°C ( 55°F)
Dewpoint: 13.0°C ( 55°F) [RH = 100%]
Pressure (altimeter):29.89 inches Hg (1012.3 mb)
Winds:from the WSW (240 degrees) at 6 MPH (5 knots; 2.6 m/s)
Visibility: 3 sm ( 5 km)
Ceiling:1000 feet AGL
Clouds: few clouds at 400 feet AGL, overcast cloud deck at 1000 feet AGL
Weather:BR (mist)
QC Flag:automated observation with no human augmentation
Text:KHSE 270124Z AUTO 22005KT 2SM BR SCT007 OVC012 12/12 A2987 RMK AO2 LTG DSNT S T01220117
Temperature: 12.2°C ( 54°F)
Dewpoint: 11.7°C ( 53°F) [RH = 97%]
Pressure (altimeter):29.87 inches Hg (1011.6 mb)
Winds:from the SW (220 degrees) at 6 MPH (5 knots; 2.6 m/s)
Visibility: 2.00 sm ( 3.22 km)
Ceiling:1200 feet AGL
Clouds: scattered clouds at 700 feet AGL, overcast cloud deck at 1200 feet AGL
Weather:BR (mist)
QC Flag:automated observation with no human augmentation
Text:KHSE 270051Z AUTO VRB03KT 2 1/2SM BR FEW002 OVC007 11/11 A2990 RMK AO2 LTG DSNT S SLP124 T01110106
Temperature: 11.1°C ( 52°F)
Dewpoint: 10.6°C ( 51°F) [RH = 97%]
Pressure (altimeter):29.90 inches Hg (1012.6 mb) [Sea level pressure: 1012.4 mb]
Winds:variable direction winds at 3 MPH (3 knots; 1.5 m/s)
Visibility: 2.50 sm ( 4.02 km)
Ceiling:700 feet AGL
Clouds: few clouds at 200 feet AGL, overcast cloud deck at 700 feet AGL
Weather:BR (mist)
QC Flag:automated observation with no human augmentation
Text:KHSE 270041Z AUTO 00000KT 2SM BR SCT003 OVC007 11/11 A2989 RMK AO2 T01110106
Temperature: 11.1°C ( 52°F)
Dewpoint: 10.6°C ( 51°F) [RH = 97%]
Pressure (altimeter):29.89 inches Hg (1012.3 mb)
Winds:calm
Visibility: 2.00 sm ( 3.22 km)
Ceiling:700 feet AGL
Clouds: scattered clouds at 300 feet AGL, overcast cloud deck at 700 feet AGL
Weather:BR (mist)
QC Flag:automated observation with no human augmentation
Text:KHSE 270035Z AUTO 28003KT 1 1/4SM BR BKN003 OVC007 11/11 A2990 RMK AO2 T01110111
Temperature: 11.1°C ( 52°F)
Dewpoint: 11.1°C ( 52°F) [RH = 100%]
Pressure (altimeter):29.90 inches Hg (1012.6 mb)
Winds:from the W (280 degrees) at 3 MPH (3 knots; 1.5 m/s)
Visibility: 1.25 sm ( 2.01 km)
Ceiling:300 feet AGL
Clouds: broken clouds at 300 feet AGL, overcast cloud deck at 700 feet AGL
Weather:BR (mist)
QC Flag:automated observation with no human augmentation
Text:KHSE 262351Z AUTO VRB03KT 3/4SM BR OVC003 12/11 A2990 RMK AO2 SLP123 T01170111 10167 20111 53009
Temperature: 11.7°C ( 53°F)
Dewpoint: 11.1°C ( 52°F) [RH = 96%]
Pressure (altimeter):29.90 inches Hg (1012.6 mb) [Sea level pressure: 1012.3 mb]
Winds:variable direction winds at 3 MPH (3 knots; 1.5 m/s)
Visibility: 0.75 sm ( 1.21 km)
Ceiling:300 feet AGL
Clouds: overcast cloud deck at 300 feet AGL
Weather:BR (mist)
QC Flag:automated observation with no human augmentation
Text:KHSE 262345Z AUTO 29004KT 1 3/4SM BR OVC003 12/11 A2989 RMK AO2
Temperature: 12.0°C ( 54°F)
Dewpoint: 11.0°C ( 52°F) [RH = 94%]
Pressure (altimeter):29.89 inches Hg (1012.3 mb)
Winds:from the WNW (290 degrees) at 5 MPH (4 knots; 2.1 m/s)
Visibility: 1.75 sm ( 2.82 km)
Ceiling:300 feet AGL
Clouds: overcast cloud deck at 300 feet AGL
Weather:BR (mist)
QC Flag:automated observation with no human augmentation
Text:KHSE 262338Z AUTO 29004KT 3SM BR OVC004 12/11 A2989 RMK AO2 T01170111
Temperature: 11.7°C ( 53°F)
Dewpoint: 11.1°C ( 52°F) [RH = 96%]
Pressure (altimeter):29.89 inches Hg (1012.3 mb)
Winds:from the WNW (290 degrees) at 5 MPH (4 knots; 2.1 m/s)
Visibility: 3 sm ( 5 km)
Ceiling:400 feet AGL
Clouds: overcast cloud deck at 400 feet AGL
Weather:BR (mist)
QC Flag:automated observation with no human augmentation
Text:KHSE 262324Z AUTO 29003KT 3SM BR OVC003 12/11 A2989 RMK AO2 T01170111
Temperature: 11.7°C ( 53°F)
Dewpoint: 11.1°C ( 52°F) [RH = 96%]
Pressure (altimeter):29.89 inches Hg (1012.3 mb)
Winds:from the WNW (290 degrees) at 3 MPH (3 knots; 1.5 m/s)
Visibility: 3 sm ( 5 km)
Ceiling:300 feet AGL
Clouds: overcast cloud deck at 300 feet AGL
Weather:BR (mist)
QC Flag:automated observation with no human augmentation
Text:KHSE 262316Z AUTO 00000KT 2 1/2SM BR OVC002 12/11 A2989 RMK AO2 CIG 002V006 T01170111
Temperature: 11.7°C ( 53°F)
Dewpoint: 11.1°C ( 52°F) [RH = 96%]
Pressure (altimeter):29.89 inches Hg (1012.3 mb)
Winds:calm
Visibility: 2.50 sm ( 4.02 km)
Ceiling:200 feet AGL
Clouds: overcast cloud deck at 200 feet AGL
Weather:BR (mist)
QC Flag:automated observation with no human augmentation
Text:KHSE 262301Z AUTO 28003KT 4SM BR OVC002 12/11 A2988 RMK AO2 T01170111
Temperature: 11.7°C ( 53°F)
Dewpoint: 11.1°C ( 52°F) [RH = 96%]
Pressure (altimeter):29.88 inches Hg (1011.9 mb)
Winds:from the W (280 degrees) at 3 MPH (3 knots; 1.5 m/s)
Visibility: 4 sm ( 6 km)
Ceiling:200 feet AGL
Clouds: overcast cloud deck at 200 feet AGL
Weather:BR (mist)
QC Flag:automated observation with no human augmentation
Text:KHSE 262251Z AUTO 25003KT 2 1/2SM BR BKN002 OVC026 12/11 A2987 RMK AO2 SLP116 T01170111
Temperature: 11.7°C ( 53°F)
Dewpoint: 11.1°C ( 52°F) [RH = 96%]
Pressure (altimeter):29.87 inches Hg (1011.6 mb) [Sea level pressure: 1011.6 mb]
Winds:from the WSW (250 degrees) at 3 MPH (3 knots; 1.5 m/s)
Visibility: 2.50 sm ( 4.02 km)
Ceiling:200 feet AGL
Clouds: broken clouds at 200 feet AGL, overcast cloud deck at 2600 feet AGL
Weather:BR (mist)
QC Flag:automated observation with no human augmentation
Text:KHSE 262238Z AUTO 28003KT 2SM BR BKN002 OVC025 12/11 A2987 RMK AO2 T01170111
Temperature: 11.7°C ( 53°F)
Dewpoint: 11.1°C ( 52°F) [RH = 96%]
Pressure (altimeter):29.87 inches Hg (1011.6 mb)
Winds:from the W (280 degrees) at 3 MPH (3 knots; 1.5 m/s)
Visibility: 2.00 sm ( 3.22 km)
Ceiling:200 feet AGL
Clouds: broken clouds at 200 feet AGL, overcast cloud deck at 2500 feet AGL
Weather:BR (mist)
QC Flag:automated observation with no human augmentation
Text:KHSE 262225Z AUTO 00000KT 1 1/4SM BR BKN002 OVC025 12/11 A2986 RMK AO2 T01170111
Temperature: 11.7°C ( 53°F)
Dewpoint: 11.1°C ( 52°F) [RH = 96%]
Pressure (altimeter):29.86 inches Hg (1011.3 mb)
Winds:calm
Visibility: 1.25 sm ( 2.01 km)
Ceiling:200 feet AGL
Clouds: broken clouds at 200 feet AGL, overcast cloud deck at 2500 feet AGL
Weather:BR (mist)
QC Flag:automated observation with no human augmentation
Text:KHSE 262220Z AUTO VRB03KT 2SM BR BKN002 BKN011 OVC025 12/11 A2986 RMK AO2 T01170111
Temperature: 11.7°C ( 53°F)
Dewpoint: 11.1°C ( 52°F) [RH = 96%]
Pressure (altimeter):29.86 inches Hg (1011.3 mb)
Winds:variable direction winds at 3 MPH (3 knots; 1.5 m/s)
Visibility: 2.00 sm ( 3.22 km)
Ceiling:200 feet AGL
Clouds: broken clouds at 200 feet AGL, broken clouds at 1100 feet AGL, overcast cloud deck at 2500 feet AGL
Weather:BR (mist)
QC Flag:automated observation with no human augmentation
Text:KHSE 262206Z AUTO 28003KT 1 3/4SM BR BKN002 OVC007 12/11 A2986 RMK AO2 T01170111
Temperature: 11.7°C ( 53°F)
Dewpoint: 11.1°C ( 52°F) [RH = 96%]
Pressure (altimeter):29.86 inches Hg (1011.3 mb)
Winds:from the W (280 degrees) at 3 MPH (3 knots; 1.5 m/s)
Visibility: 1.75 sm ( 2.82 km)
Ceiling:200 feet AGL
Clouds: broken clouds at 200 feet AGL, overcast cloud deck at 700 feet AGL
Weather:BR (mist)
QC Flag:automated observation with no human augmentation
Text:KHSE 262157Z AUTO 27004KT 2SM BR SCT002 OVC005 12/11 A2987 RMK AO2 T01170111
Temperature: 11.7°C ( 53°F)
Dewpoint: 11.1°C ( 52°F) [RH = 96%]
Pressure (altimeter):29.87 inches Hg (1011.6 mb)
Winds:from the W (270 degrees) at 5 MPH (4 knots; 2.1 m/s)
Visibility: 2.00 sm ( 3.22 km)
Ceiling:500 feet AGL
Clouds: scattered clouds at 200 feet AGL, overcast cloud deck at 500 feet AGL
Weather:BR (mist)
QC Flag:automated observation with no human augmentation
Text:KHSE 262153Z AUTO 27004KT 1 1/2SM BR BKN003 OVC008 12/11 A2987 RMK AO2 T01170111
Temperature: 11.7°C ( 53°F)
Dewpoint: 11.1°C ( 52°F) [RH = 96%]
Pressure (altimeter):29.87 inches Hg (1011.6 mb)
Winds:from the W (270 degrees) at 5 MPH (4 knots; 2.1 m/s)
Visibility: 1.50 sm ( 2.41 km)
Ceiling:300 feet AGL
Clouds: broken clouds at 300 feet AGL, overcast cloud deck at 800 feet AGL
Weather:BR (mist)
QC Flag:automated observation with no human augmentation
Text:KHSE 262151Z AUTO 28004KT 1 1/4SM BR OVC006 12/11 A2987 RMK AO2 SLP115 T01170111
Temperature: 11.7°C ( 53°F)
Dewpoint: 11.1°C ( 52°F) [RH = 96%]
Pressure (altimeter):29.87 inches Hg (1011.6 mb) [Sea level pressure: 1011.5 mb]
Winds:from the W (280 degrees) at 5 MPH (4 knots; 2.1 m/s)
Visibility: 1.25 sm ( 2.01 km)
Ceiling:600 feet AGL
Clouds: overcast cloud deck at 600 feet AGL
Weather:BR (mist)
QC Flag:automated observation with no human augmentation
Text:KHSE 262147Z AUTO VRB05KT 3/4SM BR VV005 12/11 A2987 RMK AO2
Temperature: 12.0°C ( 54°F)
Dewpoint: 11.0°C ( 52°F) [RH = 94%]
Pressure (altimeter):29.87 inches Hg (1011.6 mb)
Winds:variable direction winds at 6 MPH (5 knots; 2.6 m/s)
Visibility: 0.75 sm ( 1.21 km)
Ceiling:indefinite ceiling with vertical visibility of 500 feet AGL
Clouds:obscured sky
Weather:BR (mist)
QC Flag:automated observation with no human augmentation
Text:KHSE 262133Z AUTO VRB04KT 1/2SM FG VV003 11/11 A2987 RMK AO2 T01110111
Temperature: 11.1°C ( 52°F)
Dewpoint: 11.1°C ( 52°F) [RH = 100%]
Pressure (altimeter):29.87 inches Hg (1011.6 mb)
Winds:variable direction winds at 5 MPH (4 knots; 2.1 m/s)
Visibility: 0.50 sm ( 0.80 km)
Ceiling:indefinite ceiling with vertical visibility of 300 feet AGL
Clouds:obscured sky
Weather:FG (fog)
QC Flag:automated observation with no human augmentation
Text:KHSE 262051Z AUTO 28005KT 1/4SM FG VV002 12/12 A2985 RMK AO2 SLP109 T01220117 53013
Temperature: 12.2°C ( 54°F)
Dewpoint: 11.7°C ( 53°F) [RH = 97%]
Pressure (altimeter):29.85 inches Hg (1010.9 mb) [Sea level pressure: 1010.9 mb]
Winds:from the W (280 degrees) at 6 MPH (5 knots; 2.6 m/s)
Visibility: 0.25 sm ( 0.40 km)
Ceiling:indefinite ceiling with vertical visibility of 200 feet AGL
Clouds:obscured sky
Weather:FG (fog)
QC Flag:automated observation with no human augmentation
Text:KHSE 262020Z AUTO 29005KT 1/2SM FG OVC002 13/12 A2985 RMK AO2 T01280122
Temperature: 12.8°C ( 55°F)
Dewpoint: 12.2°C ( 54°F) [RH = 96%]
Pressure (altimeter):29.85 inches Hg (1010.9 mb)
Winds:from the WNW (290 degrees) at 6 MPH (5 knots; 2.6 m/s)
Visibility: 0.50 sm ( 0.80 km)
Ceiling:200 feet AGL
Clouds: overcast cloud deck at 200 feet AGL
Weather:FG (fog)
QC Flag:automated observation with no human augmentation
Text:KHSE 262011Z AUTO 28007KT 1SM BR OVC002 13/13 A2986 RMK AO2 T01330128
Temperature: 13.3°C ( 56°F)
Dewpoint: 12.8°C ( 55°F) [RH = 97%]
Pressure (altimeter):29.86 inches Hg (1011.3 mb)
Winds:from the W (280 degrees) at 8 MPH (7 knots; 3.6 m/s)
Visibility: 1.00 sm ( 1.61 km)
Ceiling:200 feet AGL
Clouds: overcast cloud deck at 200 feet AGL
Weather:BR (mist)
QC Flag:automated observation with no human augmentation
Text:KHSE 262001Z AUTO 27007KT 1 3/4SM BR OVC003 13/13 A2985 RMK AO2 T01330128
Temperature: 13.3°C ( 56°F)
Dewpoint: 12.8°C ( 55°F) [RH = 97%]
Pressure (altimeter):29.85 inches Hg (1010.9 mb)
Winds:from the W (270 degrees) at 8 MPH (7 knots; 3.6 m/s)
Visibility: 1.75 sm ( 2.82 km)
Ceiling:300 feet AGL
Clouds: overcast cloud deck at 300 feet AGL
Weather:BR (mist)
QC Flag:automated observation with no human augmentation
Text:KHSE 261951Z AUTO VRB06KT 4SM BR OVC003 14/13 A2985 RMK AO2 SLP107 T01440133
Temperature: 14.4°C ( 58°F)
Dewpoint: 13.3°C ( 56°F) [RH = 93%]
Pressure (altimeter):29.85 inches Hg (1010.9 mb) [Sea level pressure: 1010.7 mb]
Winds:variable direction winds at 7 MPH (6 knots; 3.1 m/s)
Visibility: 4 sm ( 6 km)
Ceiling:300 feet AGL
Clouds: overcast cloud deck at 300 feet AGL
Weather:BR (mist)
QC Flag:automated observation with no human augmentation
Text:KHSE 261942Z AUTO VRB06KT 4SM BR OVC004 14/14 A2984 RMK AO2 T01440139
Temperature: 14.4°C ( 58°F)
Dewpoint: 13.9°C ( 57°F) [RH = 97%]
Pressure (altimeter):29.84 inches Hg (1010.6 mb)
Winds:variable direction winds at 7 MPH (6 knots; 3.1 m/s)
Visibility: 4 sm ( 6 km)
Ceiling:400 feet AGL
Clouds: overcast cloud deck at 400 feet AGL
Weather:BR (mist)
QC Flag:automated observation with no human augmentation
Text:KHSE 261851Z AUTO 25006KT 5SM BR OVC007 16/16 A2980 RMK AO2 SLP091 T01610156
Temperature: 16.1°C ( 61°F)
Dewpoint: 15.6°C ( 60°F) [RH = 97%]
Pressure (altimeter):29.80 inches Hg (1009.2 mb) [Sea level pressure: 1009.1 mb]
Winds:from the WSW (250 degrees) at 7 MPH (6 knots; 3.1 m/s)
Visibility: 5 sm ( 8 km)
Ceiling:700 feet AGL
Clouds: overcast cloud deck at 700 feet AGL
Weather:BR (mist)
QC Flag:automated observation with no human augmentation
Text:KHSE 261826Z AUTO 24006KT 4SM BR BKN007 OVC014 16/15 A2981 RMK AO2 CIG 006V011 T01610150
Temperature: 16.1°C ( 61°F)
Dewpoint: 15.0°C ( 59°F) [RH = 93%]
Pressure (altimeter):29.81 inches Hg (1009.6 mb)
Winds:from the WSW (240 degrees) at 7 MPH (6 knots; 3.1 m/s)
Visibility: 4 sm ( 6 km)
Ceiling:700 feet AGL
Clouds: broken clouds at 700 feet AGL, overcast cloud deck at 1400 feet AGL
Weather:BR (mist)
QC Flag:automated observation with no human augmentation
Text:KHSE 261812Z AUTO 23007KT 5SM BR FEW007 OVC014 16/15 A2981 RMK AO2 T01610150
Temperature: 16.1°C ( 61°F)
Dewpoint: 15.0°C ( 59°F) [RH = 93%]
Pressure (altimeter):29.81 inches Hg (1009.6 mb)
Winds:from the SW (230 degrees) at 8 MPH (7 knots; 3.6 m/s)
Visibility: 5 sm ( 8 km)
Ceiling:1400 feet AGL
Clouds: few clouds at 700 feet AGL, overcast cloud deck at 1400 feet AGL
Weather:BR (mist)
QC Flag:automated observation with no human augmentation
Text:KHSE 261751Z AUTO 23006KT 4SM BR OVC015 16/15 A2982 RMK AO2 RAB1657E40 SLP096 P0000 60045 T01560150 10161 20089 55027
Temperature: 15.6°C ( 60°F)
Dewpoint: 15.0°C ( 59°F) [RH = 96%]
Pressure (altimeter):29.82 inches Hg (1009.9 mb) [Sea level pressure: 1009.6 mb]
Winds:from the SW (230 degrees) at 7 MPH (6 knots; 3.1 m/s)
Visibility: 4 sm ( 6 km)
Ceiling:1500 feet AGL
Clouds: overcast cloud deck at 1500 feet AGL
Weather:BR (mist)
QC Flag:automated observation with no human augmentation
Text:KHSE 261749Z AUTO 22006KT 4SM BR OVC015 16/15 A2981 RMK AO2 RAB1657E40 P0000
Temperature: 16.0°C ( 61°F)
Dewpoint: 15.0°C ( 59°F) [RH = 94%]
Pressure (altimeter):29.81 inches Hg (1009.6 mb)
Winds:from the SW (220 degrees) at 7 MPH (6 knots; 3.1 m/s)
Visibility: 4 sm ( 6 km)
Ceiling:1500 feet AGL
Clouds: overcast cloud deck at 1500 feet AGL
Weather:BR (mist)
QC Flag:automated observation with no human augmentation
Text:KHSE 261713Z AUTO 21010KT 7SM -RA OVC014 16/15 A2985 RMK AO2 RAB1657 P0000 T01560150
Temperature: 15.6°C ( 60°F)
Dewpoint: 15.0°C ( 59°F) [RH = 96%]
Pressure (altimeter):29.85 inches Hg (1010.9 mb)
Winds:from the SSW (210 degrees) at 12 MPH (10 knots; 5.1 m/s)
Visibility: 7 sm ( 11 km)
Ceiling:1400 feet AGL
Clouds: overcast cloud deck at 1400 feet AGL
Weather:-RA (light rain)
QC Flag:automated observation with no human augmentation
Text:KHSE 261651Z AUTO 21010KT 7SM BKN015 OVC026 16/15 A2987 RMK AO2 SLP114 T01560150
Temperature: 15.6°C ( 60°F)
Dewpoint: 15.0°C ( 59°F) [RH = 96%]
Pressure (altimeter):29.87 inches Hg (1011.6 mb) [Sea level pressure: 1011.4 mb]
Winds:from the SSW (210 degrees) at 12 MPH (10 knots; 5.1 m/s)
Visibility: 7 sm ( 11 km)
Ceiling:1500 feet AGL
Clouds: broken clouds at 1500 feet AGL, overcast cloud deck at 2600 feet AGL
QC Flag:automated observation with no human augmentation
Text:KHSE 261551Z AUTO 20009KT 6SM BR OVC023 15/14 A2990 RMK AO2 LTG DSNT SE RAE23 SLP123 P0004 T01500144
Temperature: 15.0°C ( 59°F)
Dewpoint: 14.4°C ( 58°F) [RH = 96%]
Pressure (altimeter):29.90 inches Hg (1012.6 mb) [Sea level pressure: 1012.3 mb]
Winds:from the SSW (200 degrees) at 10 MPH (9 knots; 4.6 m/s)
Visibility: 6 sm ( 10 km)
Ceiling:2300 feet AGL
Clouds: overcast cloud deck at 2300 feet AGL
Weather:BR (mist)
QC Flag:automated observation with no human augmentation
Text:KHSE 261538Z AUTO 19011KT 4SM BR FEW009 OVC027 15/14 A2989 RMK AO2 LTG DSNT SE AND S RAE23 P0004 T01500144
Temperature: 15.0°C ( 59°F)
Dewpoint: 14.4°C ( 58°F) [RH = 96%]
Pressure (altimeter):29.89 inches Hg (1012.3 mb)
Winds:from the S (190 degrees) at 13 MPH (11 knots; 5.7 m/s)
Visibility: 4 sm ( 6 km)
Ceiling:2700 feet AGL
Clouds: few clouds at 900 feet AGL, overcast cloud deck at 2700 feet AGL
Weather:BR (mist)
QC Flag:automated observation with no human augmentation
Text:KHSE 261511Z AUTO 17009KT 3SM -RA BR SCT008 BKN035 OVC045 14/14 A2989 RMK AO2 LTG DSNT S P0003 T01390139
Temperature: 13.9°C ( 57°F)
Dewpoint: 13.9°C ( 57°F) [RH = 100%]
Pressure (altimeter):29.89 inches Hg (1012.3 mb)
Winds:from the S (170 degrees) at 10 MPH (9 knots; 4.6 m/s)
Visibility: 3 sm ( 5 km)
Ceiling:3500 feet AGL
Clouds: scattered clouds at 800 feet AGL, broken clouds at 3500 feet AGL, overcast cloud deck at 4500 feet AGL
Weather:-RA BR (light rain, mist)
QC Flag:automated observation with no human augmentation
Text:KHSE 261501Z AUTO 15007KT 2SM -RA BR FEW006 BKN042 OVC095 14/13 A2989 RMK AO2 LTG DSNT S AND SW P0003 T01390133
Temperature: 13.9°C ( 57°F)
Dewpoint: 13.3°C ( 56°F) [RH = 96%]
Pressure (altimeter):29.89 inches Hg (1012.3 mb)
Winds:from the SSE (150 degrees) at 8 MPH (7 knots; 3.6 m/s)
Visibility: 2.00 sm ( 3.22 km)
Ceiling:4200 feet AGL
Clouds: few clouds at 600 feet AGL, broken clouds at 4200 feet AGL, overcast cloud deck at 9500 feet AGL
Weather:-RA BR (light rain, mist)
QC Flag:automated observation with no human augmentation
Text:KHSE 261451Z AUTO 16010KT 1 1/4SM +RA BR FEW008 BKN075 OVC095 13/13 A2990 RMK AO2 LTG DSNT SW TSB14E34 SLP123 P0019 60041 T01330133 56006
Temperature: 13.3°C ( 56°F)
Dewpoint: 13.3°C ( 56°F) [RH = 100%]
Pressure (altimeter):29.90 inches Hg (1012.6 mb) [Sea level pressure: 1012.3 mb]
Winds:from the SSE (160 degrees) at 12 MPH (10 knots; 5.1 m/s)
Visibility: 1.25 sm ( 2.01 km)
Ceiling:7500 feet AGL
Clouds: few clouds at 800 feet AGL, broken clouds at 7500 feet AGL, overcast cloud deck at 9500 feet AGL
Weather:+RA BR (heavy rain, mist)
QC Flag:automated observation with no human augmentation
Text:KHSE 261449Z AUTO 16009KT 1 1/4SM RA BR FEW010 BKN075 OVC095 13/13 A2990 RMK AO2 LTG DSNT SW TSB14E34 P0018
Temperature: 13.0°C ( 55°F)
Dewpoint: 13.0°C ( 55°F) [RH = 100%]
Pressure (altimeter):29.90 inches Hg (1012.6 mb)
Winds:from the SSE (160 degrees) at 10 MPH (9 knots; 4.6 m/s)
Visibility: 1.25 sm ( 2.01 km)
Ceiling:7500 feet AGL
Clouds: few clouds at 1000 feet AGL, broken clouds at 7500 feet AGL, overcast cloud deck at 9500 feet AGL
Weather:RA BR (moderate rain, mist)
QC Flag:automated observation with no human augmentation
Text:KHSE 261434Z AUTO 12008KT 1 1/2SM VCTS RA BR SCT043 BKN075 OVC095 13/13 A2988 RMK AO2 LTG DSNT SW AND W TSB14E34 P0015 T01330128
Temperature: 13.3°C ( 56°F)
Dewpoint: 12.8°C ( 55°F) [RH = 97%]
Pressure (altimeter):29.88 inches Hg (1011.9 mb)
Winds:from the ESE (120 degrees) at 9 MPH (8 knots; 4.1 m/s)
Visibility: 1.50 sm ( 2.41 km)
Ceiling:7500 feet AGL
Clouds: scattered clouds at 4300 feet AGL, broken clouds at 7500 feet AGL, overcast cloud deck at 9500 feet AGL
Weather:VCTS RA BR (thunderstorm in vicinity, moderate rain, mist)
QC Flag:automated observation with no human augmentation
Text:KHSE 261417Z AUTO 11004KT 1 1/4SM +TSRA BR BKN045 BKN060 OVC090 12/12 A2989 RMK AO2 LTG DSNT SW AND W TSB14 P0003 T01170117
Temperature: 11.7°C ( 53°F)
Dewpoint: 11.7°C ( 53°F) [RH = 100%]
Pressure (altimeter):29.89 inches Hg (1012.3 mb)
Winds:from the ESE (110 degrees) at 5 MPH (4 knots; 2.1 m/s)
Visibility: 1.25 sm ( 2.01 km)
Ceiling:4500 feet AGL
Clouds: broken clouds at 4500 feet AGL, broken clouds at 6000 feet AGL, overcast cloud deck at 9000 feet AGL
Weather:+TSRA BR (heavy rain associated with thunderstorm(s), mist)
QC Flag:automated observation with no human augmentation
Text:KHSE 261414Z AUTO 11006KT 2SM TSRA BR FEW045 BKN050 OVC090 12/12 A2989 RMK AO2 LTG DSNT SW AND W TSB14 P0003 T01170117
Temperature: 11.7°C ( 53°F)
Dewpoint: 11.7°C ( 53°F) [RH = 100%]
Pressure (altimeter):29.89 inches Hg (1012.3 mb)
Winds:from the ESE (110 degrees) at 7 MPH (6 knots; 3.1 m/s)
Visibility: 2.00 sm ( 3.22 km)
Ceiling:5000 feet AGL
Clouds: few clouds at 4500 feet AGL, broken clouds at 5000 feet AGL, overcast cloud deck at 9000 feet AGL
Weather:TSRA BR (rain associated with thunderstorm(s), mist)
QC Flag:automated observation with no human augmentation
Text:KHSE 261403Z AUTO 10004KT 3SM -RA BR SCT060 BKN075 OVC110 12/11 A2990 RMK AO2 LTG DSNT W P0001 T01170111
Temperature: 11.7°C ( 53°F)
Dewpoint: 11.1°C ( 52°F) [RH = 96%]
Pressure (altimeter):29.90 inches Hg (1012.6 mb)
Winds:from the E (100 degrees) at 5 MPH (4 knots; 2.1 m/s)
Visibility: 3 sm ( 5 km)
Ceiling:7500 feet AGL
Clouds: scattered clouds at 6000 feet AGL, broken clouds at 7500 feet AGL, overcast cloud deck at 11000 feet AGL
Weather:-RA BR (light rain, mist)
QC Flag:automated observation with no human augmentation
Text:KHSE 261351Z AUTO 12004KT 1 1/2SM RA BR SCT065 OVC080 11/11 A2990 RMK AO2 LTG DSNT W SLP123 P0012 T01110106
Temperature: 11.1°C ( 52°F)
Dewpoint: 10.6°C ( 51°F) [RH = 97%]
Pressure (altimeter):29.90 inches Hg (1012.6 mb) [Sea level pressure: 1012.3 mb]
Winds:from the ESE (120 degrees) at 5 MPH (4 knots; 2.1 m/s)
Visibility: 1.50 sm ( 2.41 km)
Ceiling:8000 feet AGL
Clouds: scattered clouds at 6500 feet AGL, overcast cloud deck at 8000 feet AGL
Weather:RA BR (moderate rain, mist)
QC Flag:automated observation with no human augmentation
Text:KHSE 261335Z AUTO 00000KT 1 3/4SM -RA BR FEW065 OVC090 11/10 A2990 RMK AO2 P0009 T01060100
Temperature: 10.6°C ( 51°F)
Dewpoint: 10.0°C ( 50°F) [RH = 96%]
Pressure (altimeter):29.90 inches Hg (1012.6 mb)
Winds:calm
Visibility: 1.75 sm ( 2.82 km)
Ceiling:9000 feet AGL
Clouds: few clouds at 6500 feet AGL, overcast cloud deck at 9000 feet AGL
Weather:-RA BR (light rain, mist)
QC Flag:automated observation with no human augmentation
Text:KHSE 261313Z AUTO 00000KT 2SM RA BR BKN100 OVC110 09/09 A2990 RMK AO2 P0003 T00940089
Temperature: 9.4°C ( 49°F)
Dewpoint: 8.9°C ( 48°F) [RH = 97%]
Pressure (altimeter):29.90 inches Hg (1012.6 mb)
Winds:calm
Visibility: 2.00 sm ( 3.22 km)
Ceiling:10000 feet AGL
Clouds: broken clouds at 10000 feet AGL, overcast cloud deck at 11000 feet AGL
Weather:RA BR (moderate rain, mist)
QC Flag:automated observation with no human augmentation
Text:KHSE 261300Z AUTO 00000KT 3SM -RA BR FEW043 BKN090 OVC110 09/09 A2991 RMK AO2 P0001 T00940089
Temperature: 9.4°C ( 49°F)
Dewpoint: 8.9°C ( 48°F) [RH = 97%]
Pressure (altimeter):29.91 inches Hg (1013.0 mb)
Winds:calm
Visibility: 3 sm ( 5 km)
Ceiling:9000 feet AGL
Clouds: few clouds at 4300 feet AGL, broken clouds at 9000 feet AGL, overcast cloud deck at 11000 feet AGL
Weather:-RA BR (light rain, mist)
QC Flag:automated observation with no human augmentation
Text:KHSE 261251Z AUTO 36003KT 2 1/2SM -RA BR FEW024 BKN085 OVC110 09/09 A2991 RMK AO2 SLP129 P0010 T00890089
Temperature: 8.9°C ( 48°F)
Dewpoint: 8.9°C ( 48°F) [RH = 100%]
Pressure (altimeter):29.91 inches Hg (1013.0 mb) [Sea level pressure: 1012.9 mb]
Winds:from the N (360 degrees) at 3 MPH (3 knots; 1.5 m/s)
Visibility: 2.50 sm ( 4.02 km)
Ceiling:8500 feet AGL
Clouds: few clouds at 2400 feet AGL, broken clouds at 8500 feet AGL, overcast cloud deck at 11000 feet AGL
Weather:-RA BR (light rain, mist)
QC Flag:automated observation with no human augmentation
Text:KHSE 261237Z AUTO 00000KT 2 1/2SM RA BR FEW001 SCT024 OVC031 09/09 A2991 RMK AO2 PRESFR P0008 T00890089
Temperature: 8.9°C ( 48°F)
Dewpoint: 8.9°C ( 48°F) [RH = 100%]
Pressure (altimeter):29.91 inches Hg (1013.0 mb)
Winds:calm
Visibility: 2.50 sm ( 4.02 km)
Ceiling:3100 feet AGL
Clouds: few clouds at 100 feet AGL, scattered clouds at 2400 feet AGL, overcast cloud deck at 3100 feet AGL
Weather:RA BR (moderate rain, mist)
QC Flag:automated observation with no human augmentation
Text:KHSE 261227Z AUTO 00000KT 3SM -RA BR SCT002 BKN015 OVC021 09/09 A2992 RMK AO2 P0005 T00890089
Temperature: 8.9°C ( 48°F)
Dewpoint: 8.9°C ( 48°F) [RH = 100%]
Pressure (altimeter):29.92 inches Hg (1013.3 mb)
Winds:calm
Visibility: 3 sm ( 5 km)
Ceiling:1500 feet AGL
Clouds: scattered clouds at 200 feet AGL, broken clouds at 1500 feet AGL, overcast cloud deck at 2100 feet AGL
Weather:-RA BR (light rain, mist)
QC Flag:automated observation with no human augmentation
Text:KHSE 261212Z AUTO VRB04KT 2 1/2SM RA BR SCT003 OVC010 09/08 A2992 RMK AO2 P0003 T00890083
Temperature: 8.9°C ( 48°F)
Dewpoint: 8.3°C ( 47°F) [RH = 96%]
Pressure (altimeter):29.92 inches Hg (1013.3 mb)
Winds:variable direction winds at 5 MPH (4 knots; 2.1 m/s)
Visibility: 2.50 sm ( 4.02 km)
Ceiling:1000 feet AGL
Clouds: scattered clouds at 300 feet AGL, overcast cloud deck at 1000 feet AGL
Weather:RA BR (moderate rain, mist)
QC Flag:automated observation with no human augmentation
Text:KHSE 261151Z AUTO 34005KT 2SM -RA BR OVC002 09/08 A2991 RMK AO2 RAB1056 PRESRR SLP129 P0002 60006 70058 T00890083 10094 20083 53008
Temperature: 8.9°C ( 48°F)
Dewpoint: 8.3°C ( 47°F) [RH = 96%]
Pressure (altimeter):29.91 inches Hg (1013.0 mb) [Sea level pressure: 1012.9 mb]
Winds:from the NNW (340 degrees) at 6 MPH (5 knots; 2.6 m/s)
Visibility: 2.00 sm ( 3.22 km)
Ceiling:200 feet AGL
Clouds: overcast cloud deck at 200 feet AGL
Weather:-RA BR (light rain, mist)
QC Flag:automated observation with no human augmentation
Text:KHSE 261146Z AUTO VRB03KT 1 3/4SM -RA BR OVC002 09/08 A2990 RMK AO2 RAB1056 P0002
Temperature: 9.0°C ( 48°F)
Dewpoint: 8.0°C ( 46°F) [RH = 93%]
Pressure (altimeter):29.90 inches Hg (1012.6 mb)
Winds:variable direction winds at 3 MPH (3 knots; 1.5 m/s)
Visibility: 1.75 sm ( 2.82 km)
Ceiling:200 feet AGL
Clouds: overcast cloud deck at 200 feet AGL
Weather:-RA BR (light rain, mist)
QC Flag:automated observation with no human augmentation
Text:KHSE 261136Z AUTO VRB04KT 1 1/4SM -RA BR OVC002 09/08 A2990 RMK AO2 RAB1056 P0001 T00890083
Temperature: 8.9°C ( 48°F)
Dewpoint: 8.3°C ( 47°F) [RH = 96%]
Pressure (altimeter):29.90 inches Hg (1012.6 mb)
Winds:variable direction winds at 5 MPH (4 knots; 2.1 m/s)
Visibility: 1.25 sm ( 2.01 km)
Ceiling:200 feet AGL
Clouds: overcast cloud deck at 200 feet AGL
Weather:-RA BR (light rain, mist)
QC Flag:automated observation with no human augmentation
Text:KHSE 261117Z AUTO VRB04KT 1 1/2SM -RA BR OVC002 09/08 A2989 RMK AO2 RAB1056 P0000 T00890083
Temperature: 8.9°C ( 48°F)
Dewpoint: 8.3°C ( 47°F) [RH = 96%]
Pressure (altimeter):29.89 inches Hg (1012.3 mb)
Winds:variable direction winds at 5 MPH (4 knots; 2.1 m/s)
Visibility: 1.50 sm ( 2.41 km)
Ceiling:200 feet AGL
Clouds: overcast cloud deck at 200 feet AGL
Weather:-RA BR (light rain, mist)
QC Flag:automated observation with no human augmentation
Text:KHSE 261103Z AUTO 33005KT 1 1/4SM -RA BR OVC002 08/08 A2989 RMK AO2 RAB1056 P0000 T00830083
Temperature: 8.3°C ( 47°F)
Dewpoint: 8.3°C ( 47°F) [RH = 100%]
Pressure (altimeter):29.89 inches Hg (1012.3 mb)
Winds:from the NNW (330 degrees) at 6 MPH (5 knots; 2.6 m/s)
Visibility: 1.25 sm ( 2.01 km)
Ceiling:200 feet AGL
Clouds: overcast cloud deck at 200 feet AGL
Weather:-RA BR (light rain, mist)
QC Flag:automated observation with no human augmentation
Text:KHSE 261051Z AUTO 32005KT 1 3/4SM BR OVC002 08/08 A2989 RMK AO2 RAE08B28E51 SLP121 P0001 T00830083
Temperature: 8.3°C ( 47°F)
Dewpoint: 8.3°C ( 47°F) [RH = 100%]
Pressure (altimeter):29.89 inches Hg (1012.3 mb) [Sea level pressure: 1012.1 mb]
Winds:from the NW (320 degrees) at 6 MPH (5 knots; 2.6 m/s)
Visibility: 1.75 sm ( 2.82 km)
Ceiling:200 feet AGL
Clouds: overcast cloud deck at 200 feet AGL
Weather:BR (mist)
QC Flag:automated observation with no human augmentation
Text:KHSE 261049Z AUTO VRB04KT 1 3/4SM -RA BR OVC002 08/08 A2989 RMK AO2 RAE08B28 P0001
Temperature: 8.0°C ( 46°F)
Dewpoint: 8.0°C ( 46°F) [RH = 100%]
Pressure (altimeter):29.89 inches Hg (1012.3 mb)
Winds:variable direction winds at 5 MPH (4 knots; 2.1 m/s)
Visibility: 1.75 sm ( 2.82 km)
Ceiling:200 feet AGL
Clouds: overcast cloud deck at 200 feet AGL
Weather:-RA BR (light rain, mist)
QC Flag:automated observation with no human augmentation
Text:KHSE 261019Z AUTO VRB03KT 2SM BR BKN003 OVC015 08/08 A2987 RMK AO2 RAE08 P0000 T00830083
Temperature: 8.3°C ( 47°F)
Dewpoint: 8.3°C ( 47°F) [RH = 100%]
Pressure (altimeter):29.87 inches Hg (1011.6 mb)
Winds:variable direction winds at 3 MPH (3 knots; 1.5 m/s)
Visibility: 2.00 sm ( 3.22 km)
Ceiling:300 feet AGL
Clouds: broken clouds at 300 feet AGL, overcast cloud deck at 1500 feet AGL
Weather:BR (mist)
QC Flag:automated observation with no human augmentation
Text:KHSE 261013Z AUTO 31004KT 1 3/4SM BR SCT003 OVC015 08/08 A2988 RMK AO2 RAE08 P0000 T00830083
Temperature: 8.3°C ( 47°F)
Dewpoint: 8.3°C ( 47°F) [RH = 100%]
Pressure (altimeter):29.88 inches Hg (1011.9 mb)
Winds:from the NW (310 degrees) at 5 MPH (4 knots; 2.1 m/s)
Visibility: 1.75 sm ( 2.82 km)
Ceiling:1500 feet AGL
Clouds: scattered clouds at 300 feet AGL, overcast cloud deck at 1500 feet AGL
Weather:BR (mist)
QC Flag:automated observation with no human augmentation
Text:KHSE 261001Z AUTO VRB03KT 1 3/4SM -RA BR BKN004 OVC013 08/08 A2987 RMK AO2 P0000 T00830083
Temperature: 8.3°C ( 47°F)
Dewpoint: 8.3°C ( 47°F) [RH = 100%]
Pressure (altimeter):29.87 inches Hg (1011.6 mb)
Winds:variable direction winds at 3 MPH (3 knots; 1.5 m/s)
Visibility: 1.75 sm ( 2.82 km)
Ceiling:400 feet AGL
Clouds: broken clouds at 400 feet AGL, overcast cloud deck at 1300 feet AGL
Weather:-RA BR (light rain, mist)
QC Flag:automated observation with no human augmentation
Text:KHSE 260951Z AUTO 1 1/4SM -RA BR BKN004 BKN008 OVC012 08/08 A2988 RMK AO2 RAB23 SLP118 P0003 T00830083
Temperature: 8.3°C ( 47°F)
Dewpoint: 8.3°C ( 47°F) [RH = 100%]
Pressure (altimeter):29.88 inches Hg (1011.9 mb) [Sea level pressure: 1011.8 mb]
Visibility: 1.25 sm ( 2.01 km)
Ceiling:400 feet AGL
Clouds: broken clouds at 400 feet AGL, broken clouds at 800 feet AGL, overcast cloud deck at 1200 feet AGL
Weather:-RA BR (light rain, mist)
QC Flag:automated observation with no human augmentation
Text:KHSE 260947Z AUTO 26004KT 1SM -RA BR BKN004 OVC012 08/08 A2987 RMK AO2 RAB23 P0002
Temperature: 8.0°C ( 46°F)
Dewpoint: 8.0°C ( 46°F) [RH = 100%]
Pressure (altimeter):29.87 inches Hg (1011.6 mb)
Winds:from the W (260 degrees) at 5 MPH (4 knots; 2.1 m/s)
Visibility: 1.00 sm ( 1.61 km)
Ceiling:400 feet AGL
Clouds: broken clouds at 400 feet AGL, overcast cloud deck at 1200 feet AGL
Weather:-RA BR (light rain, mist)
QC Flag:automated observation with no human augmentation
Text:KHSE 260851Z AUTO 00000KT 1/2SM FG VV003 09/09 A2987 RMK AO2 SLP114 T00890089 58003
Temperature: 8.9°C ( 48°F)
Dewpoint: 8.9°C ( 48°F) [RH = 100%]
Pressure (altimeter):29.87 inches Hg (1011.6 mb) [Sea level pressure: 1011.4 mb]
Winds:calm
Visibility: 0.50 sm ( 0.80 km)
Ceiling:indefinite ceiling with vertical visibility of 300 feet AGL
Clouds:obscured sky
Weather:FG (fog)
QC Flag:automated observation with no human augmentation
Text:KHSE 260751Z AUTO VRB04KT 1/2SM FG VV003 09/08 A2988 RMK AO2 SLP117 T00890083
Temperature: 8.9°C ( 48°F)
Dewpoint: 8.3°C ( 47°F) [RH = 96%]
Pressure (altimeter):29.88 inches Hg (1011.9 mb) [Sea level pressure: 1011.7 mb]
Winds:variable direction winds at 5 MPH (4 knots; 2.1 m/s)
Visibility: 0.50 sm ( 0.80 km)
Ceiling:indefinite ceiling with vertical visibility of 300 feet AGL
Clouds:obscured sky
Weather:FG (fog)
QC Flag:automated observation with no human augmentation
Text:KHSE 260741Z AUTO VRB03KT 3/4SM BR OVC002 09/08 A2988 RMK AO2 T00890083
Temperature: 8.9°C ( 48°F)
Dewpoint: 8.3°C ( 47°F) [RH = 96%]
Pressure (altimeter):29.88 inches Hg (1011.9 mb)
Winds:variable direction winds at 3 MPH (3 knots; 1.5 m/s)
Visibility: 0.75 sm ( 1.21 km)
Ceiling:200 feet AGL
Clouds: overcast cloud deck at 200 feet AGL
Weather:BR (mist)
QC Flag:automated observation with no human augmentation
Text:KHSE 260733Z AUTO 31006KT 1 1/4SM BR BKN004 OVC009 09/08 A2989 RMK AO2 T00890083
Temperature: 8.9°C ( 48°F)
Dewpoint: 8.3°C ( 47°F) [RH = 96%]
Pressure (altimeter):29.89 inches Hg (1012.3 mb)
Winds:from the NW (310 degrees) at 7 MPH (6 knots; 3.1 m/s)
Visibility: 1.25 sm ( 2.01 km)
Ceiling:400 feet AGL
Clouds: broken clouds at 400 feet AGL, overcast cloud deck at 900 feet AGL
Weather:BR (mist)
QC Flag:automated observation with no human augmentation
Text:KHSE 260727Z AUTO 31006KT 2SM BR BKN004 OVC009 09/08 A2989 RMK AO2 T00940083
Temperature: 9.4°C ( 49°F)
Dewpoint: 8.3°C ( 47°F) [RH = 93%]
Pressure (altimeter):29.89 inches Hg (1012.3 mb)
Winds:from the NW (310 degrees) at 7 MPH (6 knots; 3.1 m/s)
Visibility: 2.00 sm ( 3.22 km)
Ceiling:400 feet AGL
Clouds: broken clouds at 400 feet AGL, overcast cloud deck at 900 feet AGL
Weather:BR (mist)
QC Flag:automated observation with no human augmentation
Text:KHSE 260651Z AUTO 00000KT 3SM BR OVC005 09/09 A2987 RMK AO2 SLP115 T00940094
Temperature: 9.4°C ( 49°F)
Dewpoint: 9.4°C ( 49°F) [RH = 100%]
Pressure (altimeter):29.87 inches Hg (1011.6 mb) [Sea level pressure: 1011.5 mb]
Winds:calm
Visibility: 3 sm ( 5 km)
Ceiling:500 feet AGL
Clouds: overcast cloud deck at 500 feet AGL
Weather:BR (mist)
QC Flag:automated observation with no human augmentation
Text:KHSE 260637Z AUTO 00000KT 2SM BR OVC003 09/09 A2987 RMK AO2 T00940094
Temperature: 9.4°C ( 49°F)
Dewpoint: 9.4°C ( 49°F) [RH = 100%]
Pressure (altimeter):29.87 inches Hg (1011.6 mb)
Winds:calm
Visibility: 2.00 sm ( 3.22 km)
Ceiling:300 feet AGL
Clouds: overcast cloud deck at 300 feet AGL
Weather:BR (mist)
QC Flag:automated observation with no human augmentation
Text:KHSE 260558Z AUTO VRB05KT 1 1/4SM BR OVC003 09/08 A2987 RMK AO2 PRESFR T00890083
Temperature: 8.9°C ( 48°F)
Dewpoint: 8.3°C ( 47°F) [RH = 96%]
Pressure (altimeter):29.87 inches Hg (1011.6 mb)
Winds:variable direction winds at 6 MPH (5 knots; 2.6 m/s)
Visibility: 1.25 sm ( 2.01 km)
Ceiling:300 feet AGL
Clouds: overcast cloud deck at 300 feet AGL
Weather:BR (mist)
QC Flag:automated observation with no human augmentation
Text:KHSE 260551Z AUTO 00000KT 2SM BR OVC003 09/08 A2988 RMK AO2 SLP117 60001 T00890083 10122 20083 58005
Temperature: 8.9°C ( 48°F)
Dewpoint: 8.3°C ( 47°F) [RH = 96%]
Pressure (altimeter):29.88 inches Hg (1011.9 mb) [Sea level pressure: 1011.7 mb]
Winds:calm
Visibility: 2.00 sm ( 3.22 km)
Ceiling:300 feet AGL
Clouds: overcast cloud deck at 300 feet AGL
Weather:BR (mist)
QC Flag:automated observation with no human augmentation
Text:KHSE 260533Z AUTO VRB03KT 5SM BR OVC003 09/09 A2989 RMK AO2 T00890089
Temperature: 8.9°C ( 48°F)
Dewpoint: 8.9°C ( 48°F) [RH = 100%]
Pressure (altimeter):29.89 inches Hg (1012.3 mb)
Winds:variable direction winds at 3 MPH (3 knots; 1.5 m/s)
Visibility: 5 sm ( 8 km)
Ceiling:300 feet AGL
Clouds: overcast cloud deck at 300 feet AGL
Weather:BR (mist)
QC Flag:automated observation with no human augmentation
Text:KHSE 260451Z AUTO VRB05KT 8SM OVC004 09/09 A2990 RMK AO2 RAB37E47 SLP123 P0000 T00940089 401220044
Temperature: 9.4°C ( 49°F)
Dewpoint: 8.9°C ( 48°F) [RH = 97%]
Pressure (altimeter):29.90 inches Hg (1012.6 mb) [Sea level pressure: 1012.3 mb]
Winds:variable direction winds at 6 MPH (5 knots; 2.6 m/s)
Visibility: 8 sm ( 13 km)
Ceiling:400 feet AGL
Clouds: overcast cloud deck at 400 feet AGL
QC Flag:automated observation with no human augmentation
Text:KHSE 260449Z AUTO VRB06KT 8SM OVC004 09/09 A2989 RMK AO2 RAB37E47 P0000
Temperature: 9.0°C ( 48°F)
Dewpoint: 9.0°C ( 48°F) [RH = 100%]
Pressure (altimeter):29.89 inches Hg (1012.3 mb)
Winds:variable direction winds at 7 MPH (6 knots; 3.1 m/s)
Visibility: 8 sm ( 13 km)
Ceiling:400 feet AGL
Clouds: overcast cloud deck at 400 feet AGL
QC Flag:automated observation with no human augmentation
Text:KHSE 260437Z AUTO VRB06KT 5SM -RA BR BKN002 BKN008 OVC015 10/09 A2990 RMK AO2 RAB37 P0000 T01000094
Temperature: 10.0°C ( 50°F)
Dewpoint: 9.4°C ( 49°F) [RH = 96%]
Pressure (altimeter):29.90 inches Hg (1012.6 mb)
Winds:variable direction winds at 7 MPH (6 knots; 3.1 m/s)
Visibility: 5 sm ( 8 km)
Ceiling:200 feet AGL
Clouds: broken clouds at 200 feet AGL, broken clouds at 800 feet AGL, overcast cloud deck at 1500 feet AGL
Weather:-RA BR (light rain, mist)
QC Flag:automated observation with no human augmentation
Text:KHSE 260430Z AUTO 35005KT 3SM BR FEW002 SCT006 OVC015 11/10 A2990 RMK AO2 T01060100
Temperature: 10.6°C ( 51°F)
Dewpoint: 10.0°C ( 50°F) [RH = 96%]
Pressure (altimeter):29.90 inches Hg (1012.6 mb)
Winds:from the N (350 degrees) at 6 MPH (5 knots; 2.6 m/s)
Visibility: 3 sm ( 5 km)
Ceiling:1500 feet AGL
Clouds: few clouds at 200 feet AGL, scattered clouds at 600 feet AGL, overcast cloud deck at 1500 feet AGL
Weather:BR (mist)
QC Flag:automated observation with no human augmentation
Text:KHSE 260251Z AUTO 00000KT 7SM BKN023 OVC028 12/11 A2991 RMK AO2 SLP127 60001 T01170111 56011
Temperature: 11.7°C ( 53°F)
Dewpoint: 11.1°C ( 52°F) [RH = 96%]
Pressure (altimeter):29.91 inches Hg (1013.0 mb) [Sea level pressure: 1012.7 mb]
Winds:calm
Visibility: 7 sm ( 11 km)
Ceiling:2300 feet AGL
Clouds: broken clouds at 2300 feet AGL, overcast cloud deck at 2800 feet AGL
QC Flag:automated observation with no human augmentation
Text:KHSE 260205Z AUTO 07005KT 10SM FEW011 BKN020 OVC033 12/12 A2991 RMK AO2 T01220117
Temperature: 12.2°C ( 54°F)
Dewpoint: 11.7°C ( 53°F) [RH = 97%]
Pressure (altimeter):29.91 inches Hg (1013.0 mb)
Winds:from the ENE (70 degrees) at 6 MPH (5 knots; 2.6 m/s)
Visibility:10 or more sm (16+ km)
Ceiling:2000 feet AGL
Clouds: few clouds at 1100 feet AGL, broken clouds at 2000 feet AGL, overcast cloud deck at 3300 feet AGL
QC Flag:automated observation with no human augmentation
Text:KHSE 260151Z AUTO 08004KT 10SM FEW003 BKN013 OVC028 11/11 A2992 RMK AO2 SLP130 T01110111
Temperature: 11.1°C ( 52°F)
Dewpoint: 11.1°C ( 52°F) [RH = 100%]
Pressure (altimeter):29.92 inches Hg (1013.3 mb) [Sea level pressure: 1013.0 mb]
Winds:from the E (80 degrees) at 5 MPH (4 knots; 2.1 m/s)
Visibility:10 or more sm (16+ km)
Ceiling:1300 feet AGL
Clouds: few clouds at 300 feet AGL, broken clouds at 1300 feet AGL, overcast cloud deck at 2800 feet AGL
QC Flag:automated observation with no human augmentation
Text:KHSE 260147Z AUTO 08003KT 10SM FEW003 BKN011 OVC028 11/11 A2992 RMK AO2
Temperature: 11.0°C ( 52°F)
Dewpoint: 11.0°C ( 52°F) [RH = 100%]
Pressure (altimeter):29.92 inches Hg (1013.3 mb)
Winds:from the E (80 degrees) at 3 MPH (3 knots; 1.5 m/s)
Visibility:10 or more sm (16+ km)
Ceiling:1100 feet AGL
Clouds: few clouds at 300 feet AGL, broken clouds at 1100 feet AGL, overcast cloud deck at 2800 feet AGL
QC Flag:automated observation with no human augmentation
Text:KHSE 260128Z AUTO VRB04KT 8SM FEW002 OVC008 11/10 A2993 RMK AO2 T01060100
Temperature: 10.6°C ( 51°F)
Dewpoint: 10.0°C ( 50°F) [RH = 96%]
Pressure (altimeter):29.93 inches Hg (1013.6 mb)
Winds:variable direction winds at 5 MPH (4 knots; 2.1 m/s)
Visibility: 8 sm ( 13 km)
Ceiling:800 feet AGL
Clouds: few clouds at 200 feet AGL, overcast cloud deck at 800 feet AGL
QC Flag:automated observation with no human augmentation
Text:KHSE 260121Z AUTO 06006KT 5SM BR BKN003 BKN008 OVC011 09/09 A2993 RMK AO2 T00940089
Temperature: 9.4°C ( 49°F)
Dewpoint: 8.9°C ( 48°F) [RH = 97%]
Pressure (altimeter):29.93 inches Hg (1013.6 mb)
Winds:from the ENE (60 degrees) at 7 MPH (6 knots; 3.1 m/s)
Visibility: 5 sm ( 8 km)
Ceiling:300 feet AGL
Clouds: broken clouds at 300 feet AGL, broken clouds at 800 feet AGL, overcast cloud deck at 1100 feet AGL
Weather:BR (mist)
QC Flag:automated observation with no human augmentation
Text:KHSE 260112Z AUTO 04007KT 2SM BR BKN003 OVC008 09/09 A2993 RMK AO2 T00940089
Temperature: 9.4°C ( 49°F)
Dewpoint: 8.9°C ( 48°F) [RH = 97%]
Pressure (altimeter):29.93 inches Hg (1013.6 mb)
Winds:from the NE (40 degrees) at 8 MPH (7 knots; 3.6 m/s)
Visibility: 2.00 sm ( 3.22 km)
Ceiling:300 feet AGL
Clouds: broken clouds at 300 feet AGL, overcast cloud deck at 800 feet AGL
Weather:BR (mist)
QC Flag:automated observation with no human augmentation
Text:KHSE 260107Z AUTO 04007KT 1 1/4SM BR OVC003 09/08 A2993 RMK AO2 T00890083
Temperature: 8.9°C ( 48°F)
Dewpoint: 8.3°C ( 47°F) [RH = 96%]
Pressure (altimeter):29.93 inches Hg (1013.6 mb)
Winds:from the NE (40 degrees) at 8 MPH (7 knots; 3.6 m/s)
Visibility: 1.25 sm ( 2.01 km)
Ceiling:300 feet AGL
Clouds: overcast cloud deck at 300 feet AGL
Weather:BR (mist)
QC Flag:automated observation with no human augmentation
Text:KHSE 260058Z AUTO VRB06KT 1 1/2SM BR OVC003 09/08 A2995 RMK AO2 T00890083
Temperature: 8.9°C ( 48°F)
Dewpoint: 8.3°C ( 47°F) [RH = 96%]
Pressure (altimeter):29.95 inches Hg (1014.3 mb)
Winds:variable direction winds at 7 MPH (6 knots; 3.1 m/s)
Visibility: 1.50 sm ( 2.41 km)
Ceiling:300 feet AGL
Clouds: overcast cloud deck at 300 feet AGL
Weather:BR (mist)
QC Flag:automated observation with no human augmentation
Text:KHSE 260051Z AUTO VRB04KT 1 1/4SM BR OVC003 09/08 A2994 RMK AO2 RAE28 SLP138 P0001 T00890083
Temperature: 8.9°C ( 48°F)
Dewpoint: 8.3°C ( 47°F) [RH = 96%]
Pressure (altimeter):29.94 inches Hg (1014.0 mb) [Sea level pressure: 1013.8 mb]
Winds:variable direction winds at 5 MPH (4 knots; 2.1 m/s)
Visibility: 1.25 sm ( 2.01 km)
Ceiling:300 feet AGL
Clouds: overcast cloud deck at 300 feet AGL
Weather:BR (mist)
QC Flag:automated observation with no human augmentation
Text:KHSE 260048Z AUTO 08006KT 1 1/4SM BR OVC003 09/08 A2993 RMK AO2 RAE28 PRESFR P0001
Temperature: 9.0°C ( 48°F)
Dewpoint: 8.0°C ( 46°F) [RH = 93%]
Pressure (altimeter):29.93 inches Hg (1013.6 mb)
Winds:from the E (80 degrees) at 7 MPH (6 knots; 3.1 m/s)
Visibility: 1.25 sm ( 2.01 km)
Ceiling:300 feet AGL
Clouds: overcast cloud deck at 300 feet AGL
Weather:BR (mist)
QC Flag:automated observation with no human augmentation
Text:KHSE 260044Z AUTO 05007KT 1 1/2SM BR OVC004 09/08 A2994 RMK AO2 RAE28 P0001 T00890083
Temperature: 8.9°C ( 48°F)
Dewpoint: 8.3°C ( 47°F) [RH = 96%]
Pressure (altimeter):29.94 inches Hg (1014.0 mb)
Winds:from the NE (50 degrees) at 8 MPH (7 knots; 3.6 m/s)
Visibility: 1.50 sm ( 2.41 km)
Ceiling:400 feet AGL
Clouds: overcast cloud deck at 400 feet AGL
Weather:BR (mist)
QC Flag:automated observation with no human augmentation
Text:KHSE 260034Z AUTO VRB04KT 2SM BR OVC004 09/09 A2995 RMK AO2 RAE28 P0001 T00940089
Temperature: 9.4°C ( 49°F)
Dewpoint: 8.9°C ( 48°F) [RH = 97%]
Pressure (altimeter):29.95 inches Hg (1014.3 mb)
Winds:variable direction winds at 5 MPH (4 knots; 2.1 m/s)
Visibility: 2.00 sm ( 3.22 km)
Ceiling:400 feet AGL
Clouds: overcast cloud deck at 400 feet AGL
Weather:BR (mist)
QC Flag:automated observation with no human augmentation
Text:KHSE 260026Z AUTO 03005KT 1 1/4SM -RA BR OVC004 09/08 A2996 RMK AO2 P0001 T00890083
Temperature: 8.9°C ( 48°F)
Dewpoint: 8.3°C ( 47°F) [RH = 96%]
Pressure (altimeter):29.96 inches Hg (1014.6 mb)
Winds:from the NNE (30 degrees) at 6 MPH (5 knots; 2.6 m/s)
Visibility: 1.25 sm ( 2.01 km)
Ceiling:400 feet AGL
Clouds: overcast cloud deck at 400 feet AGL
Weather:-RA BR (light rain, mist)
QC Flag:automated observation with no human augmentation
Text:KHSE 260014Z AUTO 04006KT 1 1/4SM -RA BR BKN006 OVC036 09/09 A2996 RMK AO2 P0001 T00940089
Temperature: 9.4°C ( 49°F)
Dewpoint: 8.9°C ( 48°F) [RH = 97%]
Pressure (altimeter):29.96 inches Hg (1014.6 mb)
Winds:from the NE (40 degrees) at 7 MPH (6 knots; 3.1 m/s)
Visibility: 1.25 sm ( 2.01 km)
Ceiling:600 feet AGL
Clouds: broken clouds at 600 feet AGL, overcast cloud deck at 3600 feet AGL
Weather:-RA BR (light rain, mist)
QC Flag:automated observation with no human augmentation
Text:KHSE 260006Z AUTO VRB03KT 2 1/2SM -RA BR BKN005 BKN010 OVC036 10/09 A2999 RMK AO2 P0001 T01000094
Temperature: 10.0°C ( 50°F)
Dewpoint: 9.4°C ( 49°F) [RH = 96%]
Pressure (altimeter):29.99 inches Hg (1015.7 mb)
Winds:variable direction winds at 3 MPH (3 knots; 1.5 m/s)
Visibility: 2.50 sm ( 4.02 km)
Ceiling:500 feet AGL
Clouds: broken clouds at 500 feet AGL, broken clouds at 1000 feet AGL, overcast cloud deck at 3600 feet AGL
Weather:-RA BR (light rain, mist)
QC Flag:automated observation with no human augmentation
Text:KHSE 252351Z AUTO 10003KT 3SM -RA BR SCT006 BKN029 OVC036 10/09 A2997 RMK AO2 SLP148 P0004 60028 T01000094 10100 20083 56015
Temperature: 10.0°C ( 50°F)
Dewpoint: 9.4°C ( 49°F) [RH = 96%]
Pressure (altimeter):29.97 inches Hg (1015.0 mb) [Sea level pressure: 1014.8 mb]
Winds:from the E (100 degrees) at 3 MPH (3 knots; 1.5 m/s)
Visibility: 3 sm ( 5 km)
Ceiling:2900 feet AGL
Clouds: scattered clouds at 600 feet AGL, broken clouds at 2900 feet AGL, overcast cloud deck at 3600 feet AGL
Weather:-RA BR (light rain, mist)
QC Flag:automated observation with no human augmentation
Text:KHSE 252332Z AUTO 00000KT 2 1/2SM -RA BR FEW007 OVC038 10/10 A2998 RMK AO2 P0002 T01000100
Temperature: 10.0°C ( 50°F)
Dewpoint: 10.0°C ( 50°F) [RH = 100%]
Pressure (altimeter):29.98 inches Hg (1015.3 mb)
Winds:calm
Visibility: 2.50 sm ( 4.02 km)
Ceiling:3800 feet AGL
Clouds: few clouds at 700 feet AGL, overcast cloud deck at 3800 feet AGL
Weather:-RA BR (light rain, mist)
QC Flag:automated observation with no human augmentation
Text:KHSE 252251Z AUTO 08003KT 3SM -RA BR FEW028 BKN033 OVC055 09/09 A2998 RMK AO2 SLP152 P0009 T00940089
Temperature: 9.4°C ( 49°F)
Dewpoint: 8.9°C ( 48°F) [RH = 97%]
Pressure (altimeter):29.98 inches Hg (1015.3 mb) [Sea level pressure: 1015.2 mb]
Winds:from the E (80 degrees) at 3 MPH (3 knots; 1.5 m/s)
Visibility: 3 sm ( 5 km)
Ceiling:3300 feet AGL
Clouds: few clouds at 2800 feet AGL, broken clouds at 3300 feet AGL, overcast cloud deck at 5500 feet AGL
Weather:-RA BR (light rain, mist)
QC Flag:automated observation with no human augmentation
Text:KHSE 252243Z AUTO 06003KT 2 1/2SM -RA BR OVC030 09/08 A2998 RMK AO2 P0007 T00890083
Temperature: 8.9°C ( 48°F)
Dewpoint: 8.3°C ( 47°F) [RH = 96%]
Pressure (altimeter):29.98 inches Hg (1015.3 mb)
Winds:from the ENE (60 degrees) at 3 MPH (3 knots; 1.5 m/s)
Visibility: 2.50 sm ( 4.02 km)
Ceiling:3000 feet AGL
Clouds: overcast cloud deck at 3000 feet AGL
Weather:-RA BR (light rain, mist)
QC Flag:automated observation with no human augmentation
Text:KHSE 252224Z AUTO 36003KT 2 1/2SM RA BR FEW011 BKN028 OVC036 09/08 A3000 RMK AO2 P0004 T00890083
Temperature: 8.9°C ( 48°F)
Dewpoint: 8.3°C ( 47°F) [RH = 96%]
Pressure (altimeter):30.00 inches Hg (1016.0 mb)
Winds:from the N (360 degrees) at 3 MPH (3 knots; 1.5 m/s)
Visibility: 2.50 sm ( 4.02 km)
Ceiling:2800 feet AGL
Clouds: few clouds at 1100 feet AGL, broken clouds at 2800 feet AGL, overcast cloud deck at 3600 feet AGL
Weather:RA BR (moderate rain, mist)
QC Flag:automated observation with no human augmentation
Text:KHSE 252209Z AUTO 00000KT 1 3/4SM -RA BR FEW011 OVC034 09/09 A2999 RMK AO2 P0001 T00940089
Temperature: 9.4°C ( 49°F)
Dewpoint: 8.9°C ( 48°F) [RH = 97%]
Pressure (altimeter):29.99 inches Hg (1015.7 mb)
Winds:calm
Visibility: 1.75 sm ( 2.82 km)
Ceiling:3400 feet AGL
Clouds: few clouds at 1100 feet AGL, overcast cloud deck at 3400 feet AGL
Weather:-RA BR (light rain, mist)
QC Flag:automated observation with no human augmentation
Text:KHSE 252151Z AUTO 00000KT 4SM -RA BR FEW026 FEW042 OVC055 09/09 A2999 RMK AO2 SLP155 P0007 T00940089
Temperature: 9.4°C ( 49°F)
Dewpoint: 8.9°C ( 48°F) [RH = 97%]
Pressure (altimeter):29.99 inches Hg (1015.7 mb) [Sea level pressure: 1015.5 mb]
Winds:calm
Visibility: 4 sm ( 6 km)
Ceiling:5500 feet AGL
Clouds: few clouds at 2600 feet AGL, few clouds at 4200 feet AGL, overcast cloud deck at 5500 feet AGL
Weather:-RA BR (light rain, mist)
QC Flag:automated observation with no human augmentation
Text:KHSE 252114Z AUTO 04003KT 5SM -RA BR FEW036 BKN050 OVC070 09/08 A2999 RMK AO2 P0006 T00890083
Temperature: 8.9°C ( 48°F)
Dewpoint: 8.3°C ( 47°F) [RH = 96%]
Pressure (altimeter):29.99 inches Hg (1015.7 mb)
Winds:from the NE (40 degrees) at 3 MPH (3 knots; 1.5 m/s)
Visibility: 5 sm ( 8 km)
Ceiling:5000 feet AGL
Clouds: few clouds at 3600 feet AGL, broken clouds at 5000 feet AGL, overcast cloud deck at 7000 feet AGL
Weather:-RA BR (light rain, mist)
QC Flag:automated observation with no human augmentation
Text:KHSE 252105Z AUTO 05004KT 2SM RA BR SCT038 BKN045 OVC055 09/08 A3000 RMK AO2 P0005 T00890083
Temperature: 8.9°C ( 48°F)
Dewpoint: 8.3°C ( 47°F) [RH = 96%]
Pressure (altimeter):30.00 inches Hg (1016.0 mb)
Winds:from the NE (50 degrees) at 5 MPH (4 knots; 2.1 m/s)
Visibility: 2.00 sm ( 3.22 km)
Ceiling:4500 feet AGL
Clouds: scattered clouds at 3800 feet AGL, broken clouds at 4500 feet AGL, overcast cloud deck at 5500 feet AGL
Weather:RA BR (moderate rain, mist)
QC Flag:automated observation with no human augmentation
Text:KHSE 252056Z AUTO VRB03KT 1 1/4SM +RA BR SCT033 BKN045 OVC050 09/08 A3000 RMK AO2 P0001 T00890083
Temperature: 8.9°C ( 48°F)
Dewpoint: 8.3°C ( 47°F) [RH = 96%]
Pressure (altimeter):30.00 inches Hg (1016.0 mb)
Winds:variable direction winds at 3 MPH (3 knots; 1.5 m/s)
Visibility: 1.25 sm ( 2.01 km)
Ceiling:4500 feet AGL
Clouds: scattered clouds at 3300 feet AGL, broken clouds at 4500 feet AGL, overcast cloud deck at 5000 feet AGL
Weather:+RA BR (heavy rain, mist)
QC Flag:automated observation with no human augmentation
Text:KHSE 252051Z AUTO 00000KT 2SM +RA BR SCT028 BKN045 OVC055 09/09 A3001 RMK AO2 SLP163 P0003 60008 T00940089 56016
Temperature: 9.4°C ( 49°F)
Dewpoint: 8.9°C ( 48°F) [RH = 97%]
Pressure (altimeter):30.01 inches Hg (1016.3 mb) [Sea level pressure: 1016.3 mb]
Winds:calm
Visibility: 2.00 sm ( 3.22 km)
Ceiling:4500 feet AGL
Clouds: scattered clouds at 2800 feet AGL, broken clouds at 4500 feet AGL, overcast cloud deck at 5500 feet AGL
Weather:+RA BR (heavy rain, mist)
QC Flag:automated observation with no human augmentation
Text:KHSE 252018Z AUTO 00000KT 5SM -RA BR SCT003 BKN030 OVC060 09/08 A3001 RMK AO2 P0002 T00890083
Temperature: 8.9°C ( 48°F)
Dewpoint: 8.3°C ( 47°F) [RH = 96%]
Pressure (altimeter):30.01 inches Hg (1016.3 mb)
Winds:calm
Visibility: 5 sm ( 8 km)
Ceiling:3000 feet AGL
Clouds: scattered clouds at 300 feet AGL, broken clouds at 3000 feet AGL, overcast cloud deck at 6000 feet AGL
Weather:-RA BR (light rain, mist)
QC Flag:automated observation with no human augmentation
Text:KHSE 252005Z AUTO 03004KT 7SM -RA SCT003 BKN027 OVC032 09/09 A3002 RMK AO2 P0001 T00940089
Temperature: 9.4°C ( 49°F)
Dewpoint: 8.9°C ( 48°F) [RH = 97%]
Pressure (altimeter):30.02 inches Hg (1016.7 mb)
Winds:from the NNE (30 degrees) at 5 MPH (4 knots; 2.1 m/s)
Visibility: 7 sm ( 11 km)
Ceiling:2700 feet AGL
Clouds: scattered clouds at 300 feet AGL, broken clouds at 2700 feet AGL, overcast cloud deck at 3200 feet AGL
Weather:-RA (light rain)
QC Flag:automated observation with no human augmentation
Text:KHSE 251951Z AUTO 06003KT 7SM -RA SCT018 SCT023 OVC032 09/09 A3002 RMK AO2 SLP165 P0004 T00940089
Temperature: 9.4°C ( 49°F)
Dewpoint: 8.9°C ( 48°F) [RH = 97%]
Pressure (altimeter):30.02 inches Hg (1016.7 mb) [Sea level pressure: 1016.5 mb]
Winds:from the ENE (60 degrees) at 3 MPH (3 knots; 1.5 m/s)
Visibility: 7 sm ( 11 km)
Ceiling:3200 feet AGL
Clouds: scattered clouds at 1800 feet AGL, scattered clouds at 2300 feet AGL, overcast cloud deck at 3200 feet AGL
Weather:-RA (light rain)
QC Flag:automated observation with no human augmentation
Text:KHSE 251851Z AUTO 08004KT 9SM -RA OVC025 09/08 A3003 RMK AO2 RAB05 SLP170 P0001 T00890083
Temperature: 8.9°C ( 48°F)
Dewpoint: 8.3°C ( 47°F) [RH = 96%]
Pressure (altimeter):30.03 inches Hg (1017.0 mb) [Sea level pressure: 1017.0 mb]
Winds:from the E (80 degrees) at 5 MPH (4 knots; 2.1 m/s)
Visibility: 9 sm ( 14 km)
Ceiling:2500 feet AGL
Clouds: overcast cloud deck at 2500 feet AGL
Weather:-RA (light rain)
QC Flag:automated observation with no human augmentation
Text:KHSE 251751Z AUTO VRB03KT 10SM SCT005 BKN021 OVC026 08/07 A3006 RMK AO2 RAE41 SLP179 P0001 60023 T00830072 10083 20050 58024
Temperature: 8.3°C ( 47°F)
Dewpoint: 7.2°C ( 45°F) [RH = 93%]
Pressure (altimeter):30.06 inches Hg (1018.0 mb) [Sea level pressure: 1017.9 mb]
Winds:variable direction winds at 3 MPH (3 knots; 1.5 m/s)
Visibility:10 or more sm (16+ km)
Ceiling:2100 feet AGL
Clouds: scattered clouds at 500 feet AGL, broken clouds at 2100 feet AGL, overcast cloud deck at 2600 feet AGL
QC Flag:automated observation with no human augmentation
Text:KHSE 251727Z AUTO 07004KT 7SM -RA BKN004 BKN021 OVC031 08/07 A3008 RMK AO2 P0001 T00780072
Temperature: 7.8°C ( 46°F)
Dewpoint: 7.2°C ( 45°F) [RH = 96%]
Pressure (altimeter):30.08 inches Hg (1018.7 mb)
Winds:from the ENE (70 degrees) at 5 MPH (4 knots; 2.1 m/s)
Visibility: 7 sm ( 11 km)
Ceiling:400 feet AGL
Clouds: broken clouds at 400 feet AGL, broken clouds at 2100 feet AGL, overcast cloud deck at 3100 feet AGL
Weather:-RA (light rain)
QC Flag:automated observation with no human augmentation
Text:KHSE 251715Z AUTO 09005KT 4SM -RA BR SCT004 BKN024 OVC031 08/07 A3008 RMK AO2 PRESFR P0000 T00780072
Temperature: 7.8°C ( 46°F)
Dewpoint: 7.2°C ( 45°F) [RH = 96%]
Pressure (altimeter):30.08 inches Hg (1018.7 mb)
Winds:from the E (90 degrees) at 6 MPH (5 knots; 2.6 m/s)
Visibility: 4 sm ( 6 km)
Ceiling:2400 feet AGL
Clouds: scattered clouds at 400 feet AGL, broken clouds at 2400 feet AGL, overcast cloud deck at 3100 feet AGL
Weather:-RA BR (light rain, mist)
QC Flag:automated observation with no human augmentation